sensor_id;sensor_type;location;lat;lon;timestamp;pressure;altitude;pressure_sealevel;temperature
72405;BMP280;60395;52.020;113.548;2024-01-06T00:02:18;93599.91;;;-20.21
72405;BMP280;60395;52.020;113.548;2024-01-06T00:05:21;93601.00;;;-20.27
72405;BMP280;60395;52.020;113.548;2024-01-06T00:08:24;93592.59;;;-20.30
72405;BMP280;60395;52.020;113.548;2024-01-06T00:11:28;93592.84;;;-20.28
72405;BMP280;60395;52.020;113.548;2024-01-06T00:14:32;93595.53;;;-20.31
72405;BMP280;60395;52.020;113.548;2024-01-06T00:17:35;93588.97;;;-20.29
72405;BMP280;60395;52.020;113.548;2024-01-06T00:20:38;93584.16;;;-20.32
72405;BMP280;60395;52.020;113.548;2024-01-06T00:23:42;93587.41;;;-20.26
72405;BMP280;60395;52.020;113.548;2024-01-06T00:26:46;93583.00;;;-20.37
72405;BMP280;60395;52.020;113.548;2024-01-06T00:29:49;93587.53;;;-20.41
72405;BMP280;60395;52.020;113.548;2024-01-06T00:32:52;93588.91;;;-20.40
72405;BMP280;60395;52.020;113.548;2024-01-06T00:35:56;93607.78;;;-20.39
72405;BMP280;60395;52.020;113.548;2024-01-06T00:38:59;93597.09;;;-20.39
72405;BMP280;60395;52.020;113.548;2024-01-06T00:42:02;93586.25;;;-20.31
72405;BMP280;60395;52.020;113.548;2024-01-06T00:45:06;93590.53;;;-20.31
72405;BMP280;60395;52.020;113.548;2024-01-06T00:48:10;93593.97;;;-20.29
72405;BMP280;60395;52.020;113.548;2024-01-06T00:51:13;93588.09;;;-20.26
72405;BMP280;60395;52.020;113.548;2024-01-06T00:54:17;93599.19;;;-20.27
72405;BMP280;60395;52.020;113.548;2024-01-06T00:57:20;93596.69;;;-20.27
72405;BMP280;60395;52.020;113.548;2024-01-06T01:00:27;93589.22;;;-20.27
72405;BMP280;60395;52.020;113.548;2024-01-06T01:03:30;93596.00;;;-20.27
72405;BMP280;60395;52.020;113.548;2024-01-06T01:06:34;93600.34;;;-20.22
72405;BMP280;60395;52.020;113.548;2024-01-06T01:09:39;93601.28;;;-20.20
72405;BMP280;60395;52.020;113.548;2024-01-06T01:12:42;93605.63;;;-20.15
72405;BMP280;60395;52.020;113.548;2024-01-06T01:15:46;93603.81;;;-20.14
72405;BMP280;60395;52.020;113.548;2024-01-06T01:18:49;93610.59;;;-20.20
72405;BMP280;60395;52.020;113.548;2024-01-06T01:21:53;93610.97;;;-20.27
72405;BMP280;60395;52.020;113.548;2024-01-06T01:24:58;93614.81;;;-20.32
72405;BMP280;60395;52.020;113.548;2024-01-06T01:28:08;93608.47;;;-20.33
72405;BMP280;60395;52.020;113.548;2024-01-06T01:31:12;93611.63;;;-20.32
72405;BMP280;60395;52.020;113.548;2024-01-06T01:34:16;93612.19;;;-20.23
72405;BMP280;60395;52.020;113.548;2024-01-06T01:37:20;93617.47;;;-20.09
72405;BMP280;60395;52.020;113.548;2024-01-06T01:40:23;93612.25;;;-20.06
72405;BMP280;60395;52.020;113.548;2024-01-06T01:43:27;93615.06;;;-19.93
72405;BMP280;60395;52.020;113.548;2024-01-06T01:46:32;93608.97;;;-19.86
72405;BMP280;60395;52.020;113.548;2024-01-06T01:49:35;93613.31;;;-19.75
72405;BMP280;60395;52.020;113.548;2024-01-06T01:52:39;93614.06;;;-19.58
72405;BMP280;60395;52.020;113.548;2024-01-06T01:55:44;93604.97;;;-19.61
72405;BMP280;60395;52.020;113.548;2024-01-06T01:58:48;93612.97;;;-19.51
72405;BMP280;60395;52.020;113.548;2024-01-06T02:01:51;93612.28;;;-19.58
72405;BMP280;60395;52.020;113.548;2024-01-06T02:04:56;93612.69;;;-19.65
72405;BMP280;60395;52.020;113.548;2024-01-06T02:07:59;93611.53;;;-19.69
72405;BMP280;60395;52.020;113.548;2024-01-06T02:11:04;93601.81;;;-19.50
72405;BMP280;60395;52.020;113.548;2024-01-06T02:14:08;93599.41;;;-19.23
72405;BMP280;60395;52.020;113.548;2024-01-06T02:17:11;93604.22;;;-19.02
72405;BMP280;60395;52.020;113.548;2024-01-06T02:20:16;93608.56;;;-18.80
72405;BMP280;60395;52.020;113.548;2024-01-06T02:23:22;93616.06;;;-18.80
72405;BMP280;60395;52.020;113.548;2024-01-06T02:26:26;93611.50;;;-18.71
72405;BMP280;60395;52.020;113.548;2024-01-06T02:29:29;93610.38;;;-18.64
72405;BMP280;60395;52.020;113.548;2024-01-06T02:32:33;93613.78;;;-18.56
72405;BMP280;60395;52.020;113.548;2024-01-06T02:35:36;93615.59;;;-18.40
72405;BMP280;60395;52.020;113.548;2024-01-06T02:38:40;93611.47;;;-18.26
72405;BMP280;60395;52.020;113.548;2024-01-06T02:41:43;93621.47;;;-18.09
72405;BMP280;60395;52.020;113.548;2024-01-06T02:44:46;93618.00;;;-17.95
72405;BMP280;60395;52.020;113.548;2024-01-06T02:47:50;93612.97;;;-17.84
72405;BMP280;60395;52.020;113.548;2024-01-06T02:50:53;93618.88;;;-17.76
72405;BMP280;60395;52.020;113.548;2024-01-06T02:53:57;93611.56;;;-17.74
72405;BMP280;60395;52.020;113.548;2024-01-06T02:57:01;93602.41;;;-17.66
72405;BMP280;60395;52.020;113.548;2024-01-06T03:00:04;93607.88;;;-17.61
72405;BMP280;60395;52.020;113.548;2024-01-06T03:03:08;93606.81;;;-17.88
72405;BMP280;60395;52.020;113.548;2024-01-06T03:06:12;93600.91;;;-17.97
72405;BMP280;60395;52.020;113.548;2024-01-06T03:09:15;93607.72;;;-17.80
72405;BMP280;60395;52.020;113.548;2024-01-06T03:12:20;93609.53;;;-17.75
72405;BMP280;60395;52.020;113.548;2024-01-06T03:15:23;93600.84;;;-17.69
72405;BMP280;60395;52.020;113.548;2024-01-06T03:18:27;93598.03;;;-17.54
72405;BMP280;60395;52.020;113.548;2024-01-06T03:21:30;93592.56;;;-17.58
72405;BMP280;60395;52.020;113.548;2024-01-06T03:24:34;93600.09;;;-17.58
72405;BMP280;60395;52.020;113.548;2024-01-06T03:27:37;93594.16;;;-17.55
72405;BMP280;60395;52.020;113.548;2024-01-06T03:30:40;93590.91;;;-17.44
72405;BMP280;60395;52.020;113.548;2024-01-06T03:33:44;93588.31;;;-17.33
72405;BMP280;60395;52.020;113.548;2024-01-06T03:36:48;93580.13;;;-17.34
72405;BMP280;60395;52.020;113.548;2024-01-06T03:39:51;93584.28;;;-17.06
72405;BMP280;60395;52.020;113.548;2024-01-06T03:42:55;93579.78;;;-16.83
72405;BMP280;60395;52.020;113.548;2024-01-06T03:45:58;93581.81;;;-16.76
72405;BMP280;60395;52.020;113.548;2024-01-06T03:49:03;93577.72;;;-16.79
72405;BMP280;60395;52.020;113.548;2024-01-06T03:52:07;93575.41;;;-16.77
72405;BMP280;60395;52.020;113.548;2024-01-06T03:55:10;93565.09;;;-16.74
72405;BMP280;60395;52.020;113.548;2024-01-06T03:58:14;93561.22;;;-16.75
72405;BMP280;60395;52.020;113.548;2024-01-06T04:01:17;93567.41;;;-16.76
72405;BMP280;60395;52.020;113.548;2024-01-06T04:04:21;93561.22;;;-16.75
72405;BMP280;60395;52.020;113.548;2024-01-06T04:07:24;93559.81;;;-16.70
72405;BMP280;60395;52.020;113.548;2024-01-06T04:10:27;93558.84;;;-16.67
72405;BMP280;60395;52.020;113.548;2024-01-06T04:13:31;93561.59;;;-16.65
72405;BMP280;60395;52.020;113.548;2024-01-06T04:16:34;93554.22;;;-16.57
72405;BMP280;60395;52.020;113.548;2024-01-06T04:19:38;93560.56;;;-16.51
72405;BMP280;60395;52.020;113.548;2024-01-06T04:22:41;93556.16;;;-16.45
72405;BMP280;60395;52.020;113.548;2024-01-06T04:25:45;93551.06;;;-16.39
72405;BMP280;60395;52.020;113.548;2024-01-06T04:28:48;93547.81;;;-16.34
72405;BMP280;60395;52.020;113.548;2024-01-06T04:31:52;93550.06;;;-16.30
72405;BMP280;60395;52.020;113.548;2024-01-06T04:34:55;93545.13;;;-16.17
72405;BMP280;60395;52.020;113.548;2024-01-06T04:38:00;93536.09;;;-16.07
72405;BMP280;60395;52.020;113.548;2024-01-06T04:41:03;93533.97;;;-15.97
72405;BMP280;60395;52.020;113.548;2024-01-06T04:44:07;93527.94;;;-15.94
72405;BMP280;60395;52.020;113.548;2024-01-06T04:47:10;93518.56;;;-15.94
72405;BMP280;60395;52.020;113.548;2024-01-06T04:50:13;93520.31;;;-15.89
72405;BMP280;60395;52.020;113.548;2024-01-06T04:53:17;93521.41;;;-15.84
72405;BMP280;60395;52.020;113.548;2024-01-06T04:56:20;93528.41;;;-15.77
72405;BMP280;60395;52.020;113.548;2024-01-06T04:59:24;93521.88;;;-15.67
72405;BMP280;60395;52.020;113.548;2024-01-06T05:02:27;93517.69;;;-15.59
72405;BMP280;60395;52.020;113.548;2024-01-06T05:05:31;93515.75;;;-15.53
72405;BMP280;60395;52.020;113.548;2024-01-06T05:08:34;93502.41;;;-15.48
72405;BMP280;60395;52.020;113.548;2024-01-06T05:11:43;93501.66;;;-15.43
72405;BMP280;60395;52.020;113.548;2024-01-06T05:14:47;93497.22;;;-15.36
72405;BMP280;60395;52.020;113.548;2024-01-06T05:17:50;93489.28;;;-15.27
72405;BMP280;60395;52.020;113.548;2024-01-06T05:20:54;93492.88;;;-15.23
72405;BMP280;60395;52.020;113.548;2024-01-06T05:23:59;93483.88;;;-15.18
72405;BMP280;60395;52.020;113.548;2024-01-06T05:27:02;93480.78;;;-15.11
72405;BMP280;60395;52.020;113.548;2024-01-06T05:30:06;93478.16;;;-15.05
72405;BMP280;60395;52.020;113.548;2024-01-06T05:33:12;93472.19;;;-15.02
72405;BMP280;60395;52.020;113.548;2024-01-06T05:36:19;93466.47;;;-15.03
72405;BMP280;60395;52.020;113.548;2024-01-06T05:39:23;93471.50;;;-15.03
72405;BMP280;60395;52.020;113.548;2024-01-06T05:42:28;93468.28;;;-15.03
72405;BMP280;60395;52.020;113.548;2024-01-06T05:45:31;93464.81;;;-15.00
72405;BMP280;60395;52.020;113.548;2024-01-06T05:48:35;93460.44;;;-15.00
72405;BMP280;60395;52.020;113.548;2024-01-06T05:51:44;93456.75;;;-14.99
72405;BMP280;60395;52.020;113.548;2024-01-06T05:54:48;93457.63;;;-14.96
72405;BMP280;60395;52.020;113.548;2024-01-06T05:57:52;93453.94;;;-14.95
72405;BMP280;60395;52.020;113.548;2024-01-06T06:00:55;93452.97;;;-14.92
72405;BMP280;60395;52.020;113.548;2024-01-06T06:03:59;93452.00;;;-14.89
72405;BMP280;60395;52.020;113.548;2024-01-06T06:07:03;93453.38;;;-14.88
72405;BMP280;60395;52.020;113.548;2024-01-06T06:10:10;93450.84;;;-14.88
72405;BMP280;60395;52.020;113.548;2024-01-06T06:13:14;93449.09;;;-14.93
72405;BMP280;60395;52.020;113.548;2024-01-06T06:16:18;93454.16;;;-14.93
72405;BMP280;60395;52.020;113.548;2024-01-06T06:19:23;93451.34;;;-14.90
72405;BMP280;60395;52.020;113.548;2024-01-06T06:22:27;93452.97;;;-14.92
72405;BMP280;60395;52.020;113.548;2024-01-06T06:25:34;93455.69;;;-15.03
72405;BMP280;60395;52.020;113.548;2024-01-06T06:28:38;93446.00;;;-15.13
72405;BMP280;60395;52.020;113.548;2024-01-06T06:31:43;93448.50;;;-15.13
72405;BMP280;60395;52.020;113.548;2024-01-06T06:34:47;93447.19;;;-15.14
72405;BMP280;60395;52.020;113.548;2024-01-06T06:37:51;93453.25;;;-15.09
72405;BMP280;60395;52.020;113.548;2024-01-06T06:40:54;93442.16;;;-15.14
72405;BMP280;60395;52.020;113.548;2024-01-06T06:43:58;93445.91;;;-15.07
72405;BMP280;60395;52.020;113.548;2024-01-06T06:47:03;93449.28;;;-15.04
72405;BMP280;60395;52.020;113.548;2024-01-06T06:50:06;93453.75;;;-14.97
72405;BMP280;60395;52.020;113.548;2024-01-06T06:53:10;93438.63;;;-14.97
72405;BMP280;60395;52.020;113.548;2024-01-06T06:56:13;93446.41;;;-14.95
72405;BMP280;60395;52.020;113.548;2024-01-06T06:59:20;93446.59;;;-14.93
72405;BMP280;60395;52.020;113.548;2024-01-06T07:02:23;93443.75;;;-14.63
72405;BMP280;60395;52.020;113.548;2024-01-06T07:05:28;93440.34;;;-13.35
72405;BMP280;60395;52.020;113.548;2024-01-06T07:08:31;93436.28;;;-12.82
72405;BMP280;60395;52.020;113.548;2024-01-06T07:11:35;93433.13;;;-13.11
72405;BMP280;60395;52.020;113.548;2024-01-06T07:14:39;93447.47;;;-13.55
72405;BMP280;60395;52.020;113.548;2024-01-06T07:17:42;93441.06;;;-13.97
72405;BMP280;60395;52.020;113.548;2024-01-06T07:20:46;93442.84;;;-14.26
72405;BMP280;60395;52.020;113.548;2024-01-06T07:23:49;93441.22;;;-14.50
72405;BMP280;60395;52.020;113.548;2024-01-06T07:26:53;93438.34;;;-14.67
72405;BMP280;60395;52.020;113.548;2024-01-06T07:29:57;93436.31;;;-14.82
72405;BMP280;60395;52.020;113.548;2024-01-06T07:33:00;93443.19;;;-14.96
72405;BMP280;60395;52.020;113.548;2024-01-06T07:36:04;93435.84;;;-15.20
72405;BMP280;60395;52.020;113.548;2024-01-06T07:39:08;93438.56;;;-15.50
72405;BMP280;60395;52.020;113.548;2024-01-06T07:42:12;93446.13;;;-15.82
72405;BMP280;60395;52.020;113.548;2024-01-06T07:45:16;93443.25;;;-15.86
72405;BMP280;60395;52.020;113.548;2024-01-06T07:48:19;93439.97;;;-15.81
72405;BMP280;60395;52.020;113.548;2024-01-06T07:51:23;93441.72;;;-15.76
72405;BMP280;60395;52.020;113.548;2024-01-06T07:54:28;93432.94;;;-15.69
72405;BMP280;60395;52.020;113.548;2024-01-06T07:57:31;93442.41;;;-15.30
72405;BMP280;60395;52.020;113.548;2024-01-06T08:00:35;93438.63;;;-15.24
72405;BMP280;60395;52.020;113.548;2024-01-06T08:03:38;93430.34;;;-15.64
72405;BMP280;60395;52.020;113.548;2024-01-06T08:06:42;93427.44;;;-16.19
72405;BMP280;60395;52.020;113.548;2024-01-06T08:09:46;93430.75;;;-16.48
72405;BMP280;60395;52.020;113.548;2024-01-06T08:12:49;93422.50;;;-16.86
72405;BMP280;60395;52.020;113.548;2024-01-06T08:15:53;93428.09;;;-17.23
72405;BMP280;60395;52.020;113.548;2024-01-06T08:18:57;93423.50;;;-17.49
72405;BMP280;60395;52.020;113.548;2024-01-06T08:22:01;93423.19;;;-17.70
72405;BMP280;60395;52.020;113.548;2024-01-06T08:25:04;93428.09;;;-17.89
72405;BMP280;60395;52.020;113.548;2024-01-06T08:28:12;93433.41;;;-17.98
72405;BMP280;60395;52.020;113.548;2024-01-06T08:31:17;93430.16;;;-17.93
72405;BMP280;60395;52.020;113.548;2024-01-06T08:34:21;93427.66;;;-17.93
72405;BMP280;60395;52.020;113.548;2024-01-06T08:37:24;93431.84;;;-18.01
72405;BMP280;60395;52.020;113.548;2024-01-06T08:40:28;93438.75;;;-18.18
72405;BMP280;60395;52.020;113.548;2024-01-06T08:43:31;93432.41;;;-18.31
72405;BMP280;60395;52.020;113.548;2024-01-06T08:46:35;93431.75;;;-18.37
72405;BMP280;60395;52.020;113.548;2024-01-06T08:49:38;93429.06;;;-18.50
72405;BMP280;60395;52.020;113.548;2024-01-06T08:52:42;93432.78;;;-18.62
72405;BMP280;60395;52.020;113.548;2024-01-06T08:55:46;93436.25;;;-18.87
72405;BMP280;60395;52.020;113.548;2024-01-06T08:58:49;93437.66;;;-19.14
72405;BMP280;60395;52.020;113.548;2024-01-06T09:01:53;93435.16;;;-19.26
72405;BMP280;60395;52.020;113.548;2024-01-06T09:04:56;93432.66;;;-19.31
72405;BMP280;60395;52.020;113.548;2024-01-06T09:08:00;93441.53;;;-19.41
72405;BMP280;60395;52.020;113.548;2024-01-06T09:11:03;93438.59;;;-19.51
72405;BMP280;60395;52.020;113.548;2024-01-06T09:14:06;93439.28;;;-19.39
72405;BMP280;60395;52.020;113.548;2024-01-06T09:17:10;93447.44;;;-19.28
72405;BMP280;60395;52.020;113.548;2024-01-06T09:20:13;93442.66;;;-19.26
72405;BMP280;60395;52.020;113.548;2024-01-06T09:23:17;93443.34;;;-19.25
72405;BMP280;60395;52.020;113.548;2024-01-06T09:26:23;93444.28;;;-19.34
72405;BMP280;60395;52.020;113.548;2024-01-06T09:29:27;93437.91;;;-19.46
72405;BMP280;60395;52.020;113.548;2024-01-06T09:32:31;93444.25;;;-19.45
72405;BMP280;60395;52.020;113.548;2024-01-06T09:35:34;93444.28;;;-19.50
72405;BMP280;60395;52.020;113.548;2024-01-06T09:38:38;93440.38;;;-19.63
72405;BMP280;60395;52.020;113.548;2024-01-06T09:41:41;93441.50;;;-19.86
72405;BMP280;60395;52.020;113.548;2024-01-06T09:44:45;93439.22;;;-19.95
72405;BMP280;60395;52.020;113.548;2024-01-06T09:47:50;93444.22;;;-19.95
72405;BMP280;60395;52.020;113.548;2024-01-06T09:50:56;93436.91;;;-20.04
72405;BMP280;60395;52.020;113.548;2024-01-06T09:54:01;93440.53;;;-20.05
72405;BMP280;60395;52.020;113.548;2024-01-06T09:57:04;93431.47;;;-19.97
72405;BMP280;60395;52.020;113.548;2024-01-06T10:00:09;93430.81;;;-19.92
72405;BMP280;60395;52.020;113.548;2024-01-06T10:03:18;93425.34;;;-19.96
72405;BMP280;60395;52.020;113.548;2024-01-06T10:06:22;93421.72;;;-20.01
72405;BMP280;60395;52.020;113.548;2024-01-06T10:09:26;93426.91;;;-19.99
72405;BMP280;60395;52.020;113.548;2024-01-06T10:12:31;93421.22;;;-19.99
72405;BMP280;60395;52.020;113.548;2024-01-06T10:15:35;93426.47;;;-19.97
72405;BMP280;60395;52.020;113.548;2024-01-06T10:18:39;93423.72;;;-19.94
72405;BMP280;60395;52.020;113.548;2024-01-06T10:21:44;93425.09;;;-19.98
72405;BMP280;60395;52.020;113.548;2024-01-06T10:24:47;93421.69;;;-20.06
72405;BMP280;60395;52.020;113.548;2024-01-06T10:27:52;93423.28;;;-20.09
72405;BMP280;60395;52.020;113.548;2024-01-06T10:30:57;93410.50;;;-20.17
72405;BMP280;60395;52.020;113.548;2024-01-06T10:34:02;93410.97;;;-20.24
72405;BMP280;60395;52.020;113.548;2024-01-06T10:37:06;93407.78;;;-20.24
72405;BMP280;60395;52.020;113.548;2024-01-06T10:40:17;93414.38;;;-20.21
72405;BMP280;60395;52.020;113.548;2024-01-06T10:43:22;93416.88;;;-20.21
72405;BMP280;60395;52.020;113.548;2024-01-06T10:46:28;93413.66;;;-20.27
72405;BMP280;60395;52.020;113.548;2024-01-06T10:49:33;93416.88;;;-20.27
72405;BMP280;60395;52.020;113.548;2024-01-06T10:52:39;93418.00;;;-20.17
72405;BMP280;60395;52.020;113.548;2024-01-06T10:55:44;93411.88;;;-20.10
72405;BMP280;60395;52.020;113.548;2024-01-06T10:58:48;93410.09;;;-20.09
72405;BMP280;60395;52.020;113.548;2024-01-06T11:01:54;93407.81;;;-20.13
72405;BMP280;60395;52.020;113.548;2024-01-06T11:04:58;93412.78;;;-20.19
72405;BMP280;60395;52.020;113.548;2024-01-06T11:08:04;93411.88;;;-20.16
72405;BMP280;60395;52.020;113.548;2024-01-06T11:11:08;93422.78;;;-20.19
72405;BMP280;60395;52.020;113.548;2024-01-06T11:14:25;93415.28;;;-20.24
72405;BMP280;60395;52.020;113.548;2024-01-06T11:17:54;93420.00;;;-20.37
72405;BMP280;60395;52.020;113.548;2024-01-06T11:24:20;93406.41;;;-20.25
72405;BMP280;60395;52.020;113.548;2024-01-06T11:27:26;93406.66;;;-20.23
72405;BMP280;60395;52.020;113.548;2024-01-06T11:30:32;93399.56;;;-20.36
72405;BMP280;60395;52.020;113.548;2024-01-06T11:33:45;93391.56;;;-20.57
72405;BMP280;60395;52.020;113.548;2024-01-06T11:36:52;93391.03;;;-20.66
72405;BMP280;60395;52.020;113.548;2024-01-06T11:39:55;93391.53;;;-20.62
72405;BMP280;60395;52.020;113.548;2024-01-06T11:46:10;93383.78;;;-20.70
72405;BMP280;60395;52.020;113.548;2024-01-06T11:49:20;93385.66;;;-20.59
72405;BMP280;60395;52.020;113.548;2024-01-06T11:52:24;93386.31;;;-20.64
72405;BMP280;60395;52.020;113.548;2024-01-06T11:55:28;93380.59;;;-20.76
72405;BMP280;60395;52.020;113.548;2024-01-06T11:58:31;93390.38;;;-20.72
72405;BMP280;60395;52.020;113.548;2024-01-06T12:01:37;93385.56;;;-20.82
72405;BMP280;60395;52.020;113.548;2024-01-06T12:04:41;93391.19;;;-20.87
72405;BMP280;60395;52.020;113.548;2024-01-06T12:07:56;93385.38;;;-20.72
72405;BMP280;60395;52.020;113.548;2024-01-06T12:11:03;93387.41;;;-20.65
72405;BMP280;60395;52.020;113.548;2024-01-06T12:14:07;93393.59;;;-20.61
72405;BMP280;60395;52.020;113.548;2024-01-06T12:17:11;93387.00;;;-20.58
72405;BMP280;60395;52.020;113.548;2024-01-06T12:20:16;93384.78;;;-20.56
72405;BMP280;60395;52.020;113.548;2024-01-06T12:23:26;93384.09;;;-20.57
72405;BMP280;60395;52.020;113.548;2024-01-06T12:26:30;93383.75;;;-20.81
72405;BMP280;60395;52.020;113.548;2024-01-06T12:29:38;93385.34;;;-21.21
72405;BMP280;60395;52.020;113.548;2024-01-06T12:32:43;93375.84;;;-21.48
72405;BMP280;60395;52.020;113.548;2024-01-06T12:35:48;93377.09;;;-21.64
72405;BMP280;60395;52.020;113.548;2024-01-06T12:38:51;93362.22;;;-21.84
72405;BMP280;60395;52.020;113.548;2024-01-06T12:41:55;93366.81;;;-22.03
72405;BMP280;60395;52.020;113.548;2024-01-06T12:44:59;93362.34;;;-22.19
72405;BMP280;60395;52.020;113.548;2024-01-06T12:48:03;93365.75;;;-21.97
72405;BMP280;60395;52.020;113.548;2024-01-06T12:51:06;93369.75;;;-21.79
72405;BMP280;60395;52.020;113.548;2024-01-06T12:54:09;93365.56;;;-21.87
72405;BMP280;60395;52.020;113.548;2024-01-06T12:57:13;93356.13;;;-21.83
72405;BMP280;60395;52.020;113.548;2024-01-06T13:00:17;93364.31;;;-21.83
72405;BMP280;60395;52.020;113.548;2024-01-06T13:03:21;93356.13;;;-21.83
72405;BMP280;60395;52.020;113.548;2024-01-06T13:06:24;93366.66;;;-21.68
72405;BMP280;60395;52.020;113.548;2024-01-06T13:09:29;93355.78;;;-21.65
72405;BMP280;60395;52.020;113.548;2024-01-06T13:12:32;93357.88;;;-21.63
72405;BMP280;60395;52.020;113.548;2024-01-06T13:15:35;93352.50;;;-21.82
72405;BMP280;60395;52.020;113.548;2024-01-06T13:18:39;93350.09;;;-22.03
72405;BMP280;60395;52.020;113.548;2024-01-06T13:21:43;93350.69;;;-22.08
72405;BMP280;60395;52.020;113.548;2024-01-06T13:24:46;93350.09;;;-22.03
72405;BMP280;60395;52.020;113.548;2024-01-06T13:27:51;93347.28;;;-22.10
72405;BMP280;60395;52.020;113.548;2024-01-06T13:30:55;93349.38;;;-22.29
72405;BMP280;60395;52.020;113.548;2024-01-06T13:33:58;93335.31;;;-22.32
72405;BMP280;60395;52.020;113.548;2024-01-06T13:37:02;93332.88;;;-22.27
72405;BMP280;60395;52.020;113.548;2024-01-06T13:40:06;93329.69;;;-22.27
72405;BMP280;60395;52.020;113.548;2024-01-06T13:43:10;93325.75;;;-22.39
72405;BMP280;60395;52.020;113.548;2024-01-06T13:46:18;93325.50;;;-22.62
72405;BMP280;60395;52.020;113.548;2024-01-06T13:49:22;93323.66;;;-22.87
72405;BMP280;60395;52.020;113.548;2024-01-06T13:52:26;93310.78;;;-23.06
72405;BMP280;60395;52.020;113.548;2024-01-06T13:55:29;93326.00;;;-22.98
72405;BMP280;60395;52.020;113.548;2024-01-06T13:58:33;93328.06;;;-22.97
72405;BMP280;60395;52.020;113.548;2024-01-06T14:01:39;93335.78;;;-22.95
72405;BMP280;60395;52.020;113.548;2024-01-06T14:04:42;93329.16;;;-22.83
72405;BMP280;60395;52.020;113.548;2024-01-06T14:07:46;93312.94;;;-22.93
72405;BMP280;60395;52.020;113.548;2024-01-06T14:10:52;93312.91;;;-22.99
72405;BMP280;60395;52.020;113.548;2024-01-06T14:13:59;93316.91;;;-23.22
72405;BMP280;60395;52.020;113.548;2024-01-06T14:17:02;93308.25;;;-23.26
72405;BMP280;60395;52.020;113.548;2024-01-06T14:20:07;93312.75;;;-23.10
72405;BMP280;60395;52.020;113.548;2024-01-06T14:23:12;93308.59;;;-22.98
72405;BMP280;60395;52.020;113.548;2024-01-06T14:26:18;93315.56;;;-22.82
72405;BMP280;60395;52.020;113.548;2024-01-06T14:29:24;93316.06;;;-22.78
72405;BMP280;60395;52.020;113.548;2024-01-06T14:32:28;93320.41;;;-22.73
72405;BMP280;60395;52.020;113.548;2024-01-06T14:35:32;93322.28;;;-22.68
72405;BMP280;60395;52.020;113.548;2024-01-06T14:38:36;93313.25;;;-22.65
72405;BMP280;60395;52.020;113.548;2024-01-06T14:41:39;93306.81;;;-22.77
72405;BMP280;60395;52.020;113.548;2024-01-06T14:44:43;93301.25;;;-23.07
72405;BMP280;60395;52.020;113.548;2024-01-06T14:47:47;93296.81;;;-23.38
72405;BMP280;60395;52.020;113.548;2024-01-06T14:50:53;93296.34;;;-23.37
72405;BMP280;60395;52.020;113.548;2024-01-06T14:53:56;93290.00;;;-23.23
72405;BMP280;60395;52.020;113.548;2024-01-06T14:57:00;93286.09;;;-23.09
72405;BMP280;60395;52.020;113.548;2024-01-06T15:00:03;93285.25;;;-23.06
72405;BMP280;60395;52.020;113.548;2024-01-06T15:03:07;93285.97;;;-23.00
72405;BMP280;60395;52.020;113.548;2024-01-06T15:06:10;93284.41;;;-22.98
72405;BMP280;60395;52.020;113.548;2024-01-06T15:09:14;93279.88;;;-22.99
72405;BMP280;60395;52.020;113.548;2024-01-06T15:12:17;93281.31;;;-22.93
72405;BMP280;60395;52.020;113.548;2024-01-06T15:15:21;93272.31;;;-22.90
72405;BMP280;60395;52.020;113.548;2024-01-06T15:18:24;93272.31;;;-22.90
72405;BMP280;60395;52.020;113.548;2024-01-06T15:21:28;93283.84;;;-23.07
72405;BMP280;60395;52.020;113.548;2024-01-06T15:24:36;93278.63;;;-23.30
72405;BMP280;60395;52.020;113.548;2024-01-06T15:27:39;93279.03;;;-23.31
72405;BMP280;60395;52.020;113.548;2024-01-06T15:30:43;93263.66;;;-23.35
72405;BMP280;60395;52.020;113.548;2024-01-06T15:33:46;93260.59;;;-23.60
72405;BMP280;60395;52.020;113.548;2024-01-06T15:36:50;93265.34;;;-23.77
72405;BMP280;60395;52.020;113.548;2024-01-06T15:39:54;93253.88;;;-23.74
72405;BMP280;60395;52.020;113.548;2024-01-06T15:42:57;93256.69;;;-23.66
72405;BMP280;60395;52.020;113.548;2024-01-06T15:46:01;93252.25;;;-23.62
72405;BMP280;60395;52.020;113.548;2024-01-06T15:49:05;93242.81;;;-23.58
72405;BMP280;60395;52.020;113.548;2024-01-06T15:52:08;93241.25;;;-23.56
72405;BMP280;60395;52.020;113.548;2024-01-06T15:55:11;93235.84;;;-23.54
72405;BMP280;60395;52.020;113.548;2024-01-06T15:58:15;93241.00;;;-23.58
72405;BMP280;60395;52.020;113.548;2024-01-06T16:01:19;93234.03;;;-23.54
72405;BMP280;60395;52.020;113.548;2024-01-06T16:04:23;93240.22;;;-23.49
72405;BMP280;60395;52.020;113.548;2024-01-06T16:07:26;93242.09;;;-23.59
72405;BMP280;60395;52.020;113.548;2024-01-06T16:10:30;93233.28;;;-23.60
72405;BMP280;60395;52.020;113.548;2024-01-06T16:13:33;93233.47;;;-23.63
72405;BMP280;60395;52.020;113.548;2024-01-06T16:16:37;93233.03;;;-23.97
72405;BMP280;60395;52.020;113.548;2024-01-06T16:19:40;93224.06;;;-24.39
72405;BMP280;60395;52.020;113.548;2024-01-06T16:22:44;93217.81;;;-24.49
72405;BMP280;60395;52.020;113.548;2024-01-06T16:25:49;93219.00;;;-24.44
72405;BMP280;60395;52.020;113.548;2024-01-06T16:28:53;93219.88;;;-24.33
72405;BMP280;60395;52.020;113.548;2024-01-06T16:31:55;93214.31;;;-24.13
72405;BMP280;60395;52.020;113.548;2024-01-06T16:35:00;93200.16;;;-24.07
72405;BMP280;60395;52.020;113.548;2024-01-06T16:38:04;93196.13;;;-24.04
72405;BMP280;60395;52.020;113.548;2024-01-06T16:41:08;93197.19;;;-24.11
72405;BMP280;60395;52.020;113.548;2024-01-06T16:44:11;93204.28;;;-24.18
72405;BMP280;60395;52.020;113.548;2024-01-06T16:47:14;93203.41;;;-24.15
72405;BMP280;60395;52.020;113.548;2024-01-06T16:50:18;93206.69;;;-24.09
72405;BMP280;60395;52.020;113.548;2024-01-06T16:53:21;93199.13;;;-24.15
72405;BMP280;60395;52.020;113.548;2024-01-06T16:56:25;93196.34;;;-24.22
72405;BMP280;60395;52.020;113.548;2024-01-06T16:59:30;93203.78;;;-24.22
72405;BMP280;60395;52.020;113.548;2024-01-06T17:02:36;93204.03;;;-24.20